Weather Data

Pearl Creek Farm: 8878 N Farm Road 75, Walnut Grove MO 65770

<== Previous Day (Sunday 08 Mar 2009) | Next Day (Tuesday 10 Mar 2009) ==>

Summary Precipitation Data For Monday 09 March 2009

ElementValueUnits
Precipitation0"
Notes(none)
SourceSpringfield-Branson National Airport (SGF)

Summary Temperature Data For Monday 09 March 2009

ElementValueUnits
High Temperature69 oF
Low Temperature39 oF
Average Temperature57 oF
High Humidity73 %
Low Humidity32 %
Average Humidity53 %
SourceSpringfield-Branson National Airport (SGF)

Detail Temperature Data For Monday 09 March 2009

Date / TimeTemp (F)RH (%)Dew Pt (F)Report Date / TimeSource
2009-03-09 16:52:00 69 39 43.0 2017-12-29 19:14:24.89625 Springfield-Branson National Airport (SGF)
2009-03-09 17:52:00 67 45 45.0 2017-12-29 19:14:24.89625 Springfield-Branson National Airport (SGF)
2009-03-09 18:52:00 69 53 51.0 2017-12-29 19:14:24.89625 Springfield-Branson National Airport (SGF)
2009-03-09 19:52:00 67 53 49.0 2017-12-29 19:14:24.89625 Springfield-Branson National Airport (SGF)
2009-03-09 20:52:00 67 59 52.0 2017-12-29 19:14:24.89625 Springfield-Branson National Airport (SGF)
2009-03-09 21:52:00 66 65 54.0 2017-12-29 19:14:24.89625 Springfield-Branson National Airport (SGF)
2009-03-09 00:52:00 39 73 31.0 2017-12-29 19:14:24.89625 Springfield-Branson National Airport (SGF)
2009-03-09 01:52:00 42 65 31.0 2017-12-29 19:14:24.89625 Springfield-Branson National Airport (SGF)
2009-03-09 02:52:00 39 73 31.0 2017-12-29 19:14:24.89625 Springfield-Branson National Airport (SGF)
2009-03-09 03:52:00 39 70 30.0 2017-12-29 19:14:24.89625 Springfield-Branson National Airport (SGF)
2009-03-09 04:52:00 39 70 30.0 2017-12-29 19:14:24.89625 Springfield-Branson National Airport (SGF)
2009-03-09 05:52:00 39 70 30.0 2017-12-29 19:14:24.89625 Springfield-Branson National Airport (SGF)
2009-03-09 06:52:00 43 63 31.0 2017-12-29 19:14:24.89625 Springfield-Branson National Airport (SGF)
2009-03-09 07:52:00 49 50 31.0 2017-12-29 19:14:24.89625 Springfield-Branson National Airport (SGF)
2009-03-09 08:52:00 53 45 32.0 2017-12-29 19:14:24.89625 Springfield-Branson National Airport (SGF)
2009-03-09 09:52:00 58 33 29.0 2017-12-29 19:14:24.89625 Springfield-Branson National Airport (SGF)
2009-03-09 10:52:00 62 32 32.0 2017-12-29 19:14:24.89625 Springfield-Branson National Airport (SGF)
2009-03-09 11:52:00 63 35 35.0 2017-12-29 19:14:24.89625 Springfield-Branson National Airport (SGF)
2009-03-09 12:52:00 65 37 38.0 2017-12-29 19:14:24.89625 Springfield-Branson National Airport (SGF)
2009-03-09 13:52:00 68 35 39.0 2017-12-29 19:14:24.89625 Springfield-Branson National Airport (SGF)
2009-03-09 14:52:00 67 37 40.0 2017-12-29 19:14:24.89625 Springfield-Branson National Airport (SGF)
2009-03-09 15:52:00 68 38 41.0 2017-12-29 19:14:24.89625 Springfield-Branson National Airport (SGF)
2009-03-09 22:52:00 66 70 56.0 2017-12-29 19:14:24.89625 Springfield-Branson National Airport (SGF)
2009-03-09 23:52:00 66 70 56.0 2017-12-29 19:14:24.89625 Springfield-Branson National Airport (SGF)

A total of 24 rows are displayed.